createdAt,value
2019-03-28T00:01:32.825Z,65.84
2019-03-28T00:03:59.627Z,65.35
2019-03-28T00:06:26.912Z,65.42
2019-03-28T00:08:54.132Z,65.62
2019-03-28T00:11:21.104Z,65.60
2019-03-28T00:13:48.349Z,65.21
2019-03-28T00:16:15.104Z,65.20
2019-03-28T00:18:42.475Z,65.44
2019-03-28T00:21:09.317Z,65.61
2019-03-28T00:23:36.539Z,65.73
2019-03-28T00:26:03.497Z,66.45
2019-03-28T00:28:30.391Z,65.87
2019-03-28T00:30:57.352Z,66.19
2019-03-28T00:33:24.141Z,65.71
2019-03-28T00:35:51.437Z,65.57
2019-03-28T00:38:18.591Z,65.87
2019-03-28T00:40:45.338Z,66.26
2019-03-28T00:43:12.235Z,65.74
2019-03-28T00:45:39.328Z,65.33
2019-03-28T00:48:06.179Z,66.67
2019-03-28T00:50:33.269Z,67.30
2019-03-28T00:53:00.137Z,67.71
2019-03-28T00:55:26.905Z,67.50
2019-03-28T00:57:53.681Z,67.61
2019-03-28T01:00:22.173Z,67.28
2019-03-28T01:02:48.917Z,67.66
2019-03-28T01:05:15.664Z,67.00
2019-03-28T01:07:42.439Z,67.01
2019-03-28T01:10:09.917Z,67.34
2019-03-28T01:12:37.267Z,67.66
2019-03-28T01:15:06.747Z,66.98
2019-03-28T01:17:33.734Z,67.10
2019-03-28T01:20:05.419Z,66.56
2019-03-28T01:22:32.277Z,66.69
2019-03-28T01:24:59.035Z,66.40
2019-03-28T01:27:26.204Z,66.33
2019-03-28T01:29:53.110Z,66.35
2019-03-28T01:32:22.625Z,66.18
2019-03-28T01:34:49.493Z,66.73
2019-03-28T01:37:16.324Z,67.22
2019-03-28T01:39:43.215Z,66.72
2019-03-28T01:42:10.207Z,66.93
2019-03-28T01:44:37.024Z,66.35
2019-03-28T01:47:03.915Z,66.64
2019-03-28T01:49:30.869Z,66.72
2019-03-28T01:51:57.852Z,66.32
2019-03-28T01:54:25.167Z,66.37
2019-03-28T01:56:51.918Z,66.73
2019-03-28T01:59:18.862Z,66.55
2019-03-28T02:01:45.623Z,66.07
2019-03-28T02:04:12.410Z,66.38
2019-03-28T02:06:39.653Z,66.89
2019-03-28T02:09:06.732Z,66.72
2019-03-28T02:11:33.512Z,66.62
2019-03-28T02:14:00.301Z,67.11
2019-03-28T02:16:27.298Z,67.12
2019-03-28T02:18:54.212Z,67.12
2019-03-28T02:21:21.665Z,67.32
2019-03-28T02:23:48.754Z,67.20
2019-03-28T02:26:15.941Z,67.25
2019-03-28T02:28:42.932Z,67.52
2019-03-28T02:31:10.136Z,67.83
2019-03-28T02:33:37.265Z,68.11
2019-03-28T02:36:04.195Z,67.45
2019-03-28T02:38:30.935Z,67.41
2019-03-28T02:40:58.448Z,66.99
2019-03-28T02:43:25.185Z,66.99
2019-03-28T02:45:52.776Z,67.04
2019-03-28T02:48:19.824Z,67.17
2019-03-28T02:50:46.585Z,67.59
2019-03-28T02:53:13.764Z,67.40
2019-03-28T02:55:40.945Z,68.00
2019-03-28T02:58:08.295Z,67.56
2019-03-28T03:00:35.408Z,67.09
2019-03-28T03:03:02.269Z,67.62
2019-03-28T03:05:29.136Z,67.35
2019-03-28T03:07:55.924Z,67.64
2019-03-28T03:10:22.814Z,67.83
2019-03-28T03:12:53.681Z,68.73
2019-03-28T03:15:20.780Z,68.50
2019-03-28T03:17:47.923Z,67.96
2019-03-28T03:20:15.383Z,67.65
2019-03-28T03:22:42.220Z,67.28
2019-03-28T03:25:09.577Z,67.55
2019-03-28T03:27:36.547Z,67.87
2019-03-28T03:30:07.919Z,67.72
2019-03-28T03:32:35.025Z,67.54
2019-03-28T03:35:02.704Z,67.46
2019-03-28T03:37:30.122Z,67.34
2019-03-28T03:39:57.802Z,67.50
2019-03-28T03:42:25.448Z,67.68
2019-03-28T03:44:52.240Z,67.70
2019-03-28T03:47:19.773Z,67.40
2019-03-28T03:49:46.848Z,68.01
2019-03-28T03:52:13.594Z,68.23
2019-03-28T03:54:41.238Z,68.28
2019-03-28T03:57:08.059Z,68.61
2019-03-28T03:59:35.300Z,68.20
2019-03-28T04:02:02.268Z,68.48
2019-03-28T04:04:31.931Z,68.40
2019-03-28T04:06:58.810Z,68.49
2019-03-28T04:09:26.100Z,68.96
2019-03-28T04:11:53.405Z,68.96
2019-03-28T04:14:20.692Z,69.02
2019-03-28T04:16:47.506Z,69.00
2019-03-28T04:19:14.352Z,68.76
2019-03-28T04:21:41.224Z,68.60
2019-03-28T04:24:08.068Z,68.36
2019-03-28T04:26:35.343Z,68.41
2019-03-28T04:29:02.072Z,68.80
2019-03-28T04:31:29.226Z,69.00
2019-03-28T04:33:56.531Z,69.21
2019-03-28T04:36:23.740Z,70.10
2019-03-28T04:38:50.656Z,69.86
2019-03-28T04:41:17.800Z,69.71
2019-03-28T04:43:44.765Z,69.61
2019-03-28T04:46:13.960Z,69.70
2019-03-28T04:48:40.747Z,69.54
2019-03-28T04:51:07.471Z,70.49
2019-03-28T04:53:37.529Z,70.24
2019-03-28T04:56:04.633Z,69.96
2019-03-28T04:58:43.961Z,69.57
2019-03-28T05:01:00.275Z,69.47
2019-03-28T05:03:27.068Z,69.66
2019-03-28T05:05:54.184Z,69.25
2019-03-28T05:08:21.381Z,69.64
2019-03-28T05:10:48.168Z,70.04
2019-03-28T05:13:15.035Z,69.62
2019-03-28T05:15:41.770Z,69.50
2019-03-28T05:18:08.672Z,69.69
2019-03-28T05:20:35.387Z,69.45
2019-03-28T05:23:02.218Z,69.75
2019-03-28T05:25:29.050Z,69.50
2019-03-28T05:27:56.127Z,69.04
2019-03-28T05:30:23.053Z,69.03
2019-03-28T05:32:50.204Z,69.21
2019-03-28T05:35:17.011Z,69.01
2019-03-28T05:37:44.521Z,69.05
2019-03-28T05:40:12.410Z,69.33
2019-03-28T05:42:39.221Z,69.35
2019-03-28T05:45:06.694Z,69.32
2019-03-28T05:47:34.205Z,69.23
2019-03-28T05:50:01.582Z,68.98
2019-03-28T05:52:29.243Z,69.26
2019-03-28T05:54:56.464Z,69.72
2019-03-28T05:57:32.236Z,69.62
2019-03-28T05:59:58.990Z,69.61
2019-03-28T06:02:25.829Z,69.11
2019-03-28T06:04:52.576Z,69.25
2019-03-28T06:07:19.336Z,68.96
2019-03-28T06:09:46.306Z,69.33
2019-03-28T06:12:13.153Z,69.07
2019-03-28T06:14:41.079Z,69.31
2019-03-28T06:17:07.870Z,69.05
2019-03-28T06:19:34.733Z,69.30
2019-03-28T06:22:02.138Z,69.79
2019-03-28T06:24:28.935Z,69.78
2019-03-28T06:26:56.133Z,69.70
2019-03-28T06:29:24.318Z,69.91
2019-03-28T06:31:55.575Z,69.54
2019-03-28T06:34:20.416Z,69.07
2019-03-28T06:36:47.262Z,68.85
2019-03-28T06:39:14.014Z,69.18
2019-03-28T06:41:40.856Z,69.41
2019-03-28T06:44:07.752Z,69.40
2019-03-28T06:46:34.611Z,69.19
2019-03-28T06:49:03.654Z,68.58
2019-03-28T06:51:30.426Z,68.66
2019-03-28T06:53:57.337Z,68.42
2019-03-28T06:56:25.598Z,68.30
2019-03-28T06:58:52.520Z,68.27
2019-03-28T07:01:19.390Z,68.37
2019-03-28T07:03:47.512Z,68.46
2019-03-28T07:06:14.896Z,68.20
2019-03-28T07:08:42.470Z,68.23
2019-03-28T07:11:09.815Z,67.92
2019-03-28T07:13:36.964Z,67.41
2019-03-28T07:16:04.265Z,67.08
2019-03-28T07:18:34.039Z,67.06
2019-03-28T07:21:00.784Z,66.81
2019-03-28T07:23:27.761Z,66.39
2019-03-28T07:25:54.799Z,66.33
2019-03-28T07:28:21.658Z,66.03
2019-03-28T07:30:53.413Z,65.69
2019-03-28T07:33:22.618Z,65.71
2019-03-28T07:35:49.385Z,65.46
2019-03-28T07:38:16.131Z,65.30
2019-03-28T07:40:43.162Z,64.83
2019-03-28T07:43:10.529Z,64.65
2019-03-28T07:45:39.461Z,64.16
2019-03-28T07:48:06.429Z,63.84
2019-03-28T07:50:34.663Z,63.52
2019-03-28T07:53:02.286Z,62.83
2019-03-28T07:55:29.508Z,62.22
2019-03-28T07:57:56.342Z,61.60
2019-03-28T08:00:24.131Z,61.02
2019-03-28T08:02:52.758Z,60.50
2019-03-28T08:05:20.357Z,59.79
2019-03-28T08:07:47.355Z,59.34
2019-03-28T08:10:15.076Z,58.70
2019-03-28T08:12:42.175Z,58.15
2019-03-28T08:15:10.953Z,57.42
2019-03-28T08:17:38.212Z,56.82
2019-03-28T08:20:09.867Z,56.16
2019-03-28T08:22:37.429Z,55.55
2019-03-28T08:25:11.166Z,54.84
2019-03-28T08:27:36.489Z,54.32
2019-03-28T08:30:17.576Z,53.81
2019-03-28T08:32:39.622Z,53.51
2019-03-28T08:35:11.109Z,51.67
2019-03-28T08:37:39.298Z,52.50
2019-03-28T08:40:08.615Z,51.90
2019-03-28T08:42:35.604Z,51.42
2019-03-28T08:45:07.158Z,50.88
2019-03-28T08:47:34.300Z,50.33
2019-03-28T08:50:02.267Z,49.80
2019-03-28T08:52:29.651Z,49.24
2019-03-28T08:54:56.877Z,48.77
2019-03-28T08:57:25.895Z,48.20
2019-03-28T08:59:55.718Z,47.60
2019-03-28T09:02:23.056Z,47.08
2019-03-28T09:04:50.357Z,46.64
2019-03-28T09:07:17.662Z,46.11
2019-03-28T09:09:45.242Z,45.76
2019-03-28T09:12:12.406Z,45.31
2019-03-28T09:17:27.413Z,44.21
2019-03-28T09:19:54.713Z,43.89
2019-03-28T09:22:21.551Z,43.88
2019-03-28T09:24:48.730Z,43.57
2019-03-28T09:27:17.499Z,43.06
2019-03-28T09:29:44.280Z,42.46
2019-03-28T09:32:12.225Z,42.15
2019-03-28T09:34:39.207Z,41.81
2019-03-28T09:37:06.501Z,41.52
2019-03-28T09:39:33.502Z,41.36
2019-03-28T09:42:00.476Z,41.00
2019-03-28T09:44:28.102Z,40.70
2019-03-28T09:46:55.840Z,40.35
2019-03-28T09:49:23.712Z,40.32
2019-03-28T09:51:51.882Z,39.67
2019-03-28T09:54:20.286Z,39.14
2019-03-28T09:56:47.269Z,38.87
2019-03-28T09:59:14.305Z,38.54
2019-03-28T10:01:41.562Z,38.26
2019-03-28T10:04:08.460Z,37.98
2019-03-28T10:06:36.304Z,37.93
2019-03-28T10:09:06.132Z,37.56
2019-03-28T10:11:33.511Z,37.37
2019-03-28T10:14:00.622Z,36.97
2019-03-28T10:16:27.952Z,36.63
2019-03-28T10:18:57.507Z,36.31
2019-03-28T10:21:24.628Z,36.20
2019-03-28T10:23:51.517Z,35.89
2019-03-28T10:26:19.755Z,35.58
2019-03-28T10:28:46.709Z,35.39
2019-03-28T10:31:16.792Z,34.93
2019-03-28T10:33:43.348Z,34.82
2019-03-28T10:36:10.256Z,34.62
2019-03-28T10:38:37.536Z,34.57
2019-03-28T10:41:04.485Z,34.21
2019-03-28T10:43:31.667Z,33.84
2019-03-28T10:45:59.312Z,33.82
2019-03-28T10:48:30.353Z,33.63
2019-03-28T10:50:58.223Z,33.34
2019-03-28T10:53:25.448Z,33.20
2019-03-28T10:55:56.023Z,32.81
2019-03-28T10:58:25.640Z,32.48
2019-03-28T11:00:54.905Z,32.26
2019-03-28T11:03:22.824Z,32.43
2019-03-28T11:05:57.846Z,31.60
2019-03-28T11:08:26.227Z,31.63
2019-03-28T11:10:53.360Z,31.19
2019-03-28T11:13:20.605Z,30.75
2019-03-28T11:15:48.429Z,29.94
2019-03-28T11:18:15.817Z,30.60
2019-03-28T11:20:44.396Z,31.52
2019-03-28T11:23:12.240Z,31.92
2019-03-28T11:25:39.215Z,32.03
2019-03-28T11:28:07.212Z,31.75
2019-03-28T11:30:36.092Z,31.30
2019-03-28T11:33:06.299Z,30.98
2019-03-28T11:35:32.887Z,30.83
2019-03-28T11:38:00.232Z,30.44
2019-03-28T11:40:27.652Z,29.92
2019-03-28T11:42:54.816Z,29.06
2019-03-28T11:45:21.846Z,28.44
2019-03-28T11:47:49.314Z,28.55
2019-03-28T11:50:17.403Z,27.69
2019-03-28T11:52:44.737Z,27.39
2019-03-28T11:55:12.493Z,26.15
2019-03-28T11:57:39.367Z,25.53
2019-03-28T12:00:16.311Z,25.33
2019-03-28T12:02:43.568Z,24.94
2019-03-28T12:05:10.785Z,24.80
2019-03-28T12:07:37.975Z,24.86
2019-03-28T12:10:08.460Z,25.07
2019-03-28T12:12:35.767Z,24.96
2019-03-28T12:15:06.469Z,24.65
2019-03-28T12:17:33.831Z,24.12
2019-03-28T12:20:00.810Z,23.96
2019-03-28T12:22:28.216Z,23.88
2019-03-28T12:25:09.207Z,24.14
2019-03-28T12:28:02.126Z,23.88
2019-03-28T12:30:26.350Z,23.63
2019-03-28T12:32:53.380Z,24.69
2019-03-28T12:35:20.905Z,26.02
2019-03-28T12:37:47.952Z,26.64
2019-03-28T12:40:15.375Z,25.53
2019-03-28T12:42:43.113Z,27.48
2019-03-28T12:45:12.411Z,29.13
2019-03-28T12:47:42.645Z,30.59
2019-03-28T12:50:15.995Z,31.70
2019-03-28T12:52:43.419Z,32.32
2019-03-28T12:55:11.158Z,32.62
2019-03-28T12:57:38.101Z,32.68
2019-03-28T13:00:09.723Z,32.80
2019-03-28T13:02:36.977Z,32.67
2019-03-28T13:05:13.458Z,31.32
2019-03-28T13:07:40.678Z,28.81
2019-03-28T13:10:10.710Z,29.33
2019-03-28T13:12:40.049Z,30.46
2019-03-28T13:15:07.639Z,30.86
2019-03-28T13:17:34.667Z,31.38
2019-03-28T13:20:07.998Z,31.60
2019-03-28T13:22:36.185Z,31.97
2019-03-28T13:25:05.505Z,32.07
2019-03-28T13:27:34.658Z,33.31
2019-03-28T13:30:02.412Z,33.79
2019-03-28T13:32:41.022Z,33.95
2019-03-28T13:34:58.994Z,34.19
2019-03-28T13:37:30.242Z,34.46
2019-03-28T13:39:57.542Z,34.64
2019-03-28T13:42:27.321Z,34.57
2019-03-28T13:44:54.426Z,34.16
2019-03-28T13:47:24.560Z,33.66
2019-03-28T13:49:51.966Z,33.25
2019-03-28T13:52:19.520Z,33.16
2019-03-28T13:54:46.790Z,32.79
2019-03-28T13:57:18.073Z,32.53
2019-03-28T13:59:45.049Z,32.03
2019-03-28T14:02:13.035Z,32.29
2019-03-28T14:04:40.328Z,32.66
2019-03-28T14:07:10.184Z,32.96
2019-03-28T14:09:37.276Z,33.06
2019-03-28T14:12:04.638Z,32.90
2019-03-28T14:14:31.758Z,32.90
2019-03-28T14:16:58.606Z,32.91
2019-03-28T14:19:28.065Z,33.03
2019-03-28T14:21:55.119Z,32.69
2019-03-28T14:24:22.402Z,33.31
2019-03-28T14:26:49.966Z,33.81
2019-03-28T14:29:17.426Z,34.34
2019-03-28T14:31:45.149Z,34.68
2019-03-28T14:34:11.959Z,34.66
2019-03-28T14:36:38.912Z,34.28
2019-03-28T14:39:06.930Z,33.93
2019-03-28T14:41:34.743Z,34.00
2019-03-28T14:44:02.466Z,34.02
2019-03-28T14:46:29.922Z,34.24
2019-03-28T14:48:56.962Z,34.64
2019-03-28T14:51:23.992Z,34.82
2019-03-28T14:53:51.434Z,34.55
2019-03-28T14:56:19.929Z,34.23
2019-03-28T14:58:49.609Z,34.32
2019-03-28T15:01:16.888Z,34.35
2019-03-28T15:03:43.753Z,34.51
2019-03-28T15:06:10.635Z,34.76
2019-03-28T15:08:37.877Z,34.65
2019-03-28T15:11:06.835Z,34.62
2019-03-28T15:13:35.887Z,34.99
2019-03-28T15:16:02.623Z,35.39
2019-03-28T15:18:30.013Z,35.72
2019-03-28T15:20:57.640Z,36.04
2019-03-28T15:23:24.654Z,36.45
2019-03-28T15:25:51.486Z,36.87
2019-03-28T15:28:19.290Z,37.39
2019-03-28T15:30:46.582Z,37.61
2019-03-28T15:33:15.093Z,37.80
2019-03-28T15:35:42.540Z,37.89
2019-03-28T15:38:09.868Z,37.90
2019-03-28T15:40:37.380Z,37.95
2019-03-28T15:43:04.557Z,38.20
2019-03-28T15:45:31.401Z,38.63
2019-03-28T15:47:58.249Z,38.72
2019-03-28T15:50:25.175Z,38.69
2019-03-28T15:52:52.058Z,38.72
2019-03-28T15:55:21.069Z,38.80
2019-03-28T15:57:47.875Z,38.75
2019-03-28T16:00:15.371Z,38.87
2019-03-28T16:02:42.265Z,39.13
2019-03-28T16:05:09.384Z,39.14
2019-03-28T16:07:36.365Z,39.12
2019-03-28T16:10:06.154Z,39.04
2019-03-28T16:12:32.983Z,39.30
2019-03-28T16:15:00.098Z,39.49
2019-03-28T16:17:27.132Z,39.60
2019-03-28T16:19:54.024Z,39.89
2019-03-28T16:22:20.946Z,39.81
2019-03-28T16:24:48.328Z,39.84
2019-03-28T16:27:15.169Z,39.84
2019-03-28T16:29:42.072Z,39.91
2019-03-28T16:32:10.317Z,39.93
2019-03-28T16:34:37.125Z,39.98
2019-03-28T16:37:13.818Z,40.18
2019-03-28T16:39:44.905Z,40.27
2019-03-28T16:42:11.751Z,40.41
2019-03-28T16:44:41.610Z,40.58
2019-03-28T16:47:08.604Z,40.73
2019-03-28T16:49:35.570Z,40.74
2019-03-28T16:52:02.994Z,40.88
2019-03-28T16:54:29.961Z,40.95
2019-03-28T16:57:00.782Z,41.02
2019-03-28T16:59:28.618Z,41.20
2019-03-28T17:02:05.008Z,41.46
2019-03-28T17:04:43.276Z,41.73
2019-03-28T17:10:51.957Z,42.02
2019-03-28T17:13:22.717Z,42.20
2019-03-28T17:15:51.026Z,42.32
2019-03-28T17:18:19.185Z,42.38
2019-03-28T17:20:46.561Z,42.40
2019-03-28T17:23:13.744Z,42.42
2019-03-28T17:25:45.959Z,42.46
2019-03-28T17:28:13.042Z,42.50
2019-03-28T17:30:40.294Z,42.58
2019-03-28T17:33:07.532Z,42.65
2019-03-28T17:35:36.836Z,42.73
2019-03-28T17:38:03.826Z,42.95
2019-03-28T17:40:30.681Z,43.24
2019-03-28T17:43:00.078Z,43.32
2019-03-28T17:45:30.252Z,43.62
2019-03-28T17:47:58.374Z,43.64
2019-03-28T17:50:26.287Z,43.87
2019-03-28T17:53:18.075Z,44.01
2019-03-28T17:55:48.577Z,44.13
2019-03-28T17:58:18.099Z,44.13
2019-03-28T18:00:54.671Z,44.46
2019-03-28T18:03:31.014Z,44.72
2019-03-28T18:05:58.508Z,44.93
2019-03-28T18:08:21.912Z,45.28
2019-03-28T18:10:49.131Z,45.47
2019-03-28T18:13:16.173Z,45.60
2019-03-28T18:15:43.266Z,45.87
2019-03-28T18:18:11.877Z,46.14
2019-03-28T18:20:39.043Z,46.39
2019-03-28T18:23:06.426Z,46.42
2019-03-28T18:25:33.803Z,46.76
2019-03-28T18:28:01.082Z,46.97
2019-03-28T18:30:28.464Z,47.20
2019-03-28T18:32:55.896Z,47.35
2019-03-28T18:35:23.557Z,47.59
2019-03-28T18:37:51.068Z,47.77
2019-03-28T18:40:18.482Z,48.09
2019-03-28T18:42:49.139Z,48.78
2019-03-28T18:45:16.328Z,49.21
2019-03-28T18:47:43.903Z,49.37
2019-03-28T18:50:11.992Z,49.79
2019-03-28T18:52:38.791Z,49.87
2019-03-28T18:55:07.069Z,50.25
2019-03-28T18:57:37.931Z,50.67
2019-03-28T19:00:09.828Z,50.68
2019-03-28T19:02:37.308Z,50.82
2019-03-28T19:05:18.652Z,50.96
2019-03-28T19:07:35.565Z,51.25
2019-03-28T19:10:05.764Z,51.20
2019-03-28T19:12:36.171Z,51.23
2019-03-28T19:15:08.258Z,51.56
2019-03-28T19:17:35.478Z,51.86
2019-03-28T19:20:06.584Z,51.96
2019-03-28T19:22:33.532Z,52.11
2019-03-28T19:25:00.827Z,52.25
2019-03-28T19:27:31.048Z,52.65
2019-03-28T19:29:57.942Z,52.70
2019-03-28T19:32:24.789Z,52.59
2019-03-28T19:34:51.840Z,52.58
2019-03-28T19:37:22.846Z,52.73
2019-03-28T19:39:50.077Z,52.87
2019-03-28T19:42:17.833Z,53.15
2019-03-28T19:44:46.282Z,53.29
2019-03-28T19:47:13.729Z,53.43
2019-03-28T19:49:42.698Z,53.68
2019-03-28T19:52:11.839Z,53.74
2019-03-28T19:54:41.048Z,53.78
2019-03-28T19:57:08.041Z,53.90
2019-03-28T19:59:35.334Z,54.01
2019-03-28T20:02:02.188Z,54.13
2019-03-28T20:04:29.223Z,54.19
2019-03-28T20:06:56.317Z,54.22
2019-03-28T20:09:23.464Z,54.58
2019-03-28T20:11:52.239Z,54.54
2019-03-28T20:14:19.281Z,54.35
2019-03-28T20:16:46.245Z,54.36
2019-03-28T20:19:13.132Z,54.57
2019-03-28T20:21:40.320Z,54.70
2019-03-28T20:24:07.769Z,54.81
2019-03-28T20:26:34.965Z,55.17
2019-03-28T20:29:01.889Z,55.51
2019-03-28T20:31:29.128Z,55.96
2019-03-28T20:33:56.230Z,56.80
2019-03-28T20:36:36.818Z,56.81
2019-03-28T20:39:03.348Z,56.96
2019-03-28T20:41:21.901Z,56.55
2019-03-28T20:43:48.710Z,56.67
2019-03-28T20:46:15.783Z,56.59
2019-03-28T20:48:43.099Z,56.22
2019-03-28T20:51:10.229Z,56.26
2019-03-28T20:53:37.222Z,56.02
2019-03-28T20:56:06.163Z,56.24
2019-03-28T20:58:33.193Z,56.44
2019-03-28T21:01:00.349Z,56.54
2019-03-28T21:03:27.243Z,56.45
2019-03-28T21:05:54.622Z,56.55
2019-03-28T21:08:21.856Z,56.54
2019-03-28T21:10:48.620Z,56.62
2019-03-28T21:13:20.967Z,57.02
2019-03-28T21:15:47.830Z,57.26
2019-03-28T21:18:14.903Z,57.49
2019-03-28T21:20:42.165Z,57.53
2019-03-28T21:23:09.277Z,57.96
2019-03-28T21:25:36.274Z,58.03
2019-03-28T21:28:03.336Z,58.17
2019-03-28T21:30:46.527Z,58.36
2019-03-28T21:33:04.825Z,58.55
2019-03-28T21:35:32.348Z,58.75
2019-03-28T21:37:59.194Z,58.64
2019-03-28T21:40:27.666Z,58.48
2019-03-28T21:42:54.611Z,58.69
2019-03-28T21:45:21.480Z,58.59
2019-03-28T21:47:48.240Z,58.70
2019-03-28T21:50:16.405Z,58.64
2019-03-28T21:52:43.157Z,58.58
2019-03-28T21:55:11.579Z,58.56
2019-03-28T21:57:38.648Z,58.85
2019-03-28T22:00:06.657Z,58.91
2019-03-28T22:02:35.890Z,58.93
2019-03-28T22:05:04.867Z,59.28
2019-03-28T22:07:31.645Z,59.68
2019-03-28T22:09:58.410Z,60.31
2019-03-28T22:12:25.511Z,60.02
2019-03-28T22:14:52.507Z,60.00
2019-03-28T22:17:19.266Z,60.18
2019-03-28T22:19:46.128Z,60.34
2019-03-28T22:22:12.889Z,60.11
2019-03-28T22:24:39.959Z,60.22
2019-03-28T22:27:07.144Z,61.12
2019-03-28T22:29:33.850Z,61.61
2019-03-28T22:32:03.629Z,61.49
2019-03-28T22:34:30.496Z,61.45
2019-03-28T22:36:59.525Z,61.27
2019-03-28T22:39:25.992Z,61.47
2019-03-28T22:41:55.715Z,61.86
2019-03-28T22:44:22.456Z,61.74
2019-03-28T22:46:49.583Z,62.33
2019-03-28T22:49:16.896Z,62.28
2019-03-28T22:51:44.217Z,62.28
2019-03-28T22:54:11.025Z,62.24
2019-03-28T22:56:37.747Z,62.09
2019-03-28T22:59:04.510Z,62.26
2019-03-28T23:01:31.786Z,61.95
2019-03-28T23:03:58.656Z,62.13
2019-03-28T23:06:25.416Z,62.26
2019-03-28T23:08:52.356Z,62.27
2019-03-28T23:11:19.977Z,62.27
2019-03-28T23:13:46.949Z,62.27
2019-03-28T23:16:14.463Z,61.94
2019-03-28T23:18:41.482Z,62.49
2019-03-28T23:21:08.867Z,62.64
2019-03-28T23:23:35.755Z,63.01
2019-03-28T23:26:02.831Z,63.42
2019-03-28T23:28:31.441Z,63.36
2019-03-28T23:30:58.444Z,63.74
2019-03-28T23:33:25.541Z,64.14
2019-03-28T23:35:52.536Z,64.07
2019-03-28T23:38:22.047Z,64.16
2019-03-28T23:40:48.999Z,63.72
2019-03-28T23:43:15.962Z,63.75
2019-03-28T23:45:42.898Z,64.29
2019-03-28T23:48:09.824Z,64.38
2019-03-28T23:50:36.608Z,64.29
2019-03-28T23:53:03.511Z,64.65
2019-03-28T23:55:30.762Z,64.53
2019-03-28T23:57:57.554Z,63.85
